Time;durP1;ratioP1;P1;durP2;ratioP2;P2;SDS_P1;SDS_P2;PMS_P1;PMS_P2;Temp;Humidity;BMP_temperature;BMP_pressure;BME280_temperature;BME280_humidity;BME280_pressure;Samples;Min_cycle;Max_cycle;Signal;HPM_P1;HPM_P2
2022/05/29 00:01:19;;;;;;;5.82;1.30;;;;;;;;;;6182144;23;20096;-65
2022/05/29 00:03:46;;;;;;;7.10;1.50;;;;;;;;;;6175350;23;20055;-66
2022/05/29 00:06:13;;;;;;;4.93;1.27;;;;;;;;;;6182934;23;20025;-65
2022/05/29 00:08:41;;;;;;;5.63;1.40;;;;;;;;;;6175827;23;20332;-65
2022/05/29 00:11:09;;;;;;;3.42;1.15;;;;;;;;;;6176864;23;20443;-64
2022/05/29 00:13:36;;;;;;;6.30;1.70;;;;;;;;;;6169508;23;20353;-65
2022/05/29 00:16:03;;;;;;;7.00;1.58;;;;;;;;;;6183674;23;20096;-64
2022/05/29 00:18:30;;;;;;;7.43;1.95;;;;;;;;;;6178608;23;20056;-65
2022/05/29 00:20:58;;;;;;;6.82;1.38;;;;;;;;;;6154133;23;20028;-65
2022/05/29 00:23:26;;;;;;;4.13;1.45;;;;;;;;;;6182035;23;20100;-64
2022/05/29 00:25:53;;;;;;;7.22;1.60;;;;;;;;;;6164796;23;20109;-65
2022/05/29 00:28:20;;;;;;;9.75;2.15;;;;;;;;;;6181387;23;20063;-65
2022/05/29 00:30:46;;;;;;;7.47;1.83;;;;;;;;;;6174713;23;20048;-65
2022/05/29 00:33:13;;;;;;;7.68;1.83;;;;;;;;;;6182255;23;20028;-65
2022/05/29 00:35:40;;;;;;;6.10;1.60;;;;;;;;;;6175441;23;20031;-65
2022/05/29 00:38:08;;;;;;;8.23;1.90;;;;;;;;;;6175963;23;20096;-65
2022/05/29 00:40:41;;;;;;;8.38;2.00;;;;;;;;;;6177118;23;20044;-65
2022/05/29 00:43:07;;;;;;;6.90;1.80;;;;;;;;;;6174285;23;20101;-64
2022/05/29 00:45:48;;;;;;;5.55;1.65;;;;;;;;;;6183040;23;20095;-65
2022/05/29 00:48:16;;;;;;;6.85;1.90;;;;;;;;;;6174705;23;20028;-65
2022/05/29 00:50:44;;;;;;;5.80;1.97;;;;;;;;;;6182889;23;20096;-65
2022/05/29 00:53:10;;;;;;;7.65;1.95;;;;;;;;;;6168300;23;20096;-65
2022/05/29 00:55:36;;;;;;;5.93;1.90;;;;;;;;;;6181353;23;20092;-65
2022/05/29 00:58:04;;;;;;;8.07;2.10;;;;;;;;;;6175000;23;20100;-65
2022/05/29 01:00:32;;;;;;;9.25;2.17;;;;;;;;;;6182896;23;20020;-65
2022/05/29 01:02:59;;;;;;;10.20;2.80;;;;;;;;;;6182749;23;20081;-64
2022/05/29 01:05:27;;;;;;;8.52;1.63;;;;;;;;;;6168046;23;20699;-64
2022/05/29 01:08:02;;;;;;;4.03;1.75;;;;;;;;;;6176497;23;20076;-64
2022/05/29 01:10:38;;;;;;;6.68;1.83;;;;;;;;;;6173268;23;20480;-65
2022/05/29 01:13:09;;;;;;;6.60;2.05;;;;;;;;;;6183130;23;20021;-65
2022/05/29 01:15:45;;;;;;;7.18;2.10;;;;;;;;;;6175248;23;20099;-64
2022/05/29 01:18:20;;;;;;;8.43;2.30;;;;;;;;;;6180696;23;20017;-65
2022/05/29 01:20:50;;;;;;;5.13;1.92;;;;;;;;;;6165363;23;20057;-64
2022/05/29 01:23:34;;;;;;;11.50;3.20;;;;;;;;;;6181580;23;20092;-65
2022/05/29 01:26:11;;;;;;;4.35;1.63;;;;;;;;;;6175487;23;20021;-64
2022/05/29 01:28:46;;;;;;;8.82;2.30;;;;;;;;;;6181950;23;20097;-64
2022/05/29 01:31:17;;;;;;;9.35;2.20;;;;;;;;;;6182046;23;20021;-64
2022/05/29 01:33:48;;;;;;;6.97;2.22;;;;;;;;;;6173983;23;20021;-64
2022/05/29 01:36:24;;;;;;;10.32;2.05;;;;;;;;;;6175785;23;20023;-64
2022/05/29 01:39:00;;;;;;;10.13;2.45;;;;;;;;;;6175007;23;20128;-65
2022/05/29 01:41:30;;;;;;;7.80;2.13;;;;;;;;;;6181434;23;20446;-64
2022/05/29 01:44:06;;;;;;;9.10;2.88;;;;;;;;;;6174699;23;20100;-64
2022/05/29 01:46:33;;;;;;;8.13;2.40;;;;;;;;;;6176753;23;20128;-64
2022/05/29 01:48:59;;;;;;;7.57;2.10;;;;;;;;;;6170934;23;20064;-65
2022/05/29 01:51:31;;;;;;;11.15;2.28;;;;;;;;;;6181660;23;20780;-64
2022/05/29 01:54:02;;;;;;;8.15;2.17;;;;;;;;;;6173670;23;20028;-64
2022/05/29 01:56:42;;;;;;;5.13;2.10;;;;;;;;;;6181469;23;20095;-65
2022/05/29 01:59:15;;;;;;;10.30;2.67;;;;;;;;;;6173153;23;20023;-64
2022/05/29 02:01:47;;;;;;;7.53;2.70;;;;;;;;;;6175251;23;20047;-65
2022/05/29 02:04:19;;;;;;;7.95;2.80;;;;;;;;;;6181719;23;20350;-64
2022/05/29 02:09:35;;;;;;;8.07;2.50;;;;;;;;;;6182105;23;20100;-64
2022/05/29 02:12:02;;;;;;;8.77;2.85;;;;;;;;;;6173586;23;20052;-64
2022/05/29 02:14:36;;;;;;;9.63;2.75;;;;;;;;;;6171538;23;20063;-64
2022/05/29 02:17:08;;;;;;;7.70;2.45;;;;;;;;;;6174077;23;20111;-64
2022/05/29 02:19:39;;;;;;;8.23;2.22;;;;;;;;;;6181839;23;20109;-65
2022/05/29 02:22:10;;;;;;;12.50;2.47;;;;;;;;;;6174820;23;20114;-64
2022/05/29 02:24:38;;;;;;;5.22;2.15;;;;;;;;;;6181809;23;20057;-65
2022/05/29 02:27:07;;;;;;;11.57;2.20;;;;;;;;;;6172896;23;20104;-65
2022/05/29 02:29:33;;;;;;;14.25;2.72;;;;;;;;;;6174859;23;20021;-65
2022/05/29 02:32:05;;;;;;;8.57;2.20;;;;;;;;;;6180187;23;20053;-65
2022/05/29 02:34:35;;;;;;;9.55;2.60;;;;;;;;;;6173562;23;20100;-65
2022/05/29 02:37:01;;;;;;;11.65;3.38;;;;;;;;;;6181603;23;20088;-64
2022/05/29 02:39:47;;;;;;;10.20;4.40;;;;;;;;;;6173138;23;20044;-64
2022/05/29 02:42:14;;;;;;;9.20;2.30;;;;;;;;;;6172503;23;20104;-63
2022/05/29 02:44:59;;;;;;;8.60;2.20;;;;;;;;;;6171205;23;20100;-65
2022/05/29 02:47:31;;;;;;;11.93;2.58;;;;;;;;;;6180901;23;20017;-65
2022/05/29 02:50:18;;;;;;;7.57;2.58;;;;;;;;;;6173404;23;20063;-65
2022/05/29 02:52:45;;;;;;;8.88;2.55;;;;;;;;;;6181723;23;20457;-65
2022/05/29 02:55:11;;;;;;;6.88;2.15;;;;;;;;;;6168463;23;20103;-65
2022/05/29 02:57:38;;;;;;;9.88;2.53;;;;;;;;;;6175162;23;20017;-64
2022/05/29 03:00:11;;;;;;;9.32;2.20;;;;;;;;;;6181864;23;20099;-65
2022/05/29 03:03:00;;;;;;;7.85;2.00;;;;;;;;;;6177198;23;20056;-65
2022/05/29 03:05:29;;;;;;;5.25;2.03;;;;;;;;;;6180674;23;20064;-65
2022/05/29 03:08:05;;;;;;;9.60;2.20;;;;;;;;;;6169174;23;21204;-65
2022/05/29 03:10:33;;;;;;;5.97;1.98;;;;;;;;;;6175412;23;20108;-65
2022/05/29 03:13:09;;;;;;;5.27;1.70;;;;;;;;;;6147301;23;20100;-65
2022/05/29 03:15:44;;;;;;;5.68;1.55;;;;;;;;;;6182229;23;20025;-65
2022/05/29 03:18:19;;;;;;;3.10;1.60;;;;;;;;;;6173417;23;20105;-66
2022/05/29 03:21:06;;;;;;;4.07;1.30;;;;;;;;;;6181671;23;20100;-64
2022/05/29 03:23:41;;;;;;;7.00;1.42;;;;;;;;;;6151445;23;20056;-65
2022/05/29 03:26:15;;;;;;;3.50;1.58;;;;;;;;;;6177764;23;20028;-64
2022/05/29 03:28:45;;;;;;;7.30;1.70;;;;;;;;;;6173150;23;20350;-65
2022/05/29 03:31:14;;;;;;;4.85;1.65;;;;;;;;;;6180724;23;20025;-66
2022/05/29 03:33:44;;;;;;;7.07;1.60;;;;;;;;;;6172877;23;20349;-65
2022/05/29 03:36:11;;;;;;;4.03;1.63;;;;;;;;;;6174697;23;20092;-64
2022/05/29 03:38:38;;;;;;;4.75;2.13;;;;;;;;;;6174934;23;20109;-65
2022/05/29 03:41:08;;;;;;;4.90;1.60;;;;;;;;;;6173917;23;20108;-65
2022/05/29 03:43:35;;;;;;;6.07;1.60;;;;;;;;;;6181644;23;20778;-65
2022/05/29 03:46:02;;;;;;;6.15;2.10;;;;;;;;;;6173529;23;20127;-65
2022/05/29 03:48:32;;;;;;;7.50;1.60;;;;;;;;;;6180892;23;20338;-65
2022/05/29 03:51:05;;;;;;;6.00;1.80;;;;;;;;;;6165649;23;20329;-65
2022/05/29 03:53:31;;;;;;;8.60;2.33;;;;;;;;;;6181214;23;20045;-65
2022/05/29 03:55:58;;;;;;;7.88;1.95;;;;;;;;;;6173393;23;20028;-65
2022/05/29 03:58:24;;;;;;;6.65;2.05;;;;;;;;;;6181280;23;20409;-64
2022/05/29 04:00:51;;;;;;;8.05;2.08;;;;;;;;;;6183373;23;20291;-65
2022/05/29 04:03:18;;;;;;;5.90;2.28;;;;;;;;;;6168782;23;20351;-65
2022/05/29 04:05:44;;;;;;;6.57;2.00;;;;;;;;;;6177332;23;20108;-65
2022/05/29 04:13:42;;;;;;;9.68;2.60;;;;;;;;;;6173583;23;20079;-65
2022/05/29 04:16:09;;;;;;;9.45;2.45;;;;;;;;;;6182358;23;20028;-65
2022/05/29 04:18:37;;;;;;;6.57;2.10;;;;;;;;;;6163811;23;20347;-65
2022/05/29 04:21:05;;;;;;;6.50;2.50;;;;;;;;;;6181588;23;20053;-65
2022/05/29 04:23:32;;;;;;;6.53;2.60;;;;;;;;;;6182347;23;20383;-65
2022/05/29 04:25:58;;;;;;;10.95;2.58;;;;;;;;;;6178683;23;20616;-65
2022/05/29 04:28:25;;;;;;;6.93;2.00;;;;;;;;;;6181546;23;20107;-65
2022/05/29 04:30:51;;;;;;;4.65;2.25;;;;;;;;;;6169949;23;20694;-66
2022/05/29 04:33:17;;;;;;;7.03;2.13;;;;;;;;;;6176286;23;20100;-65
2022/05/29 04:35:48;;;;;;;5.10;2.08;;;;;;;;;;6174965;23;20061;-65
2022/05/29 04:38:14;;;;;;;6.25;1.95;;;;;;;;;;6182175;23;20052;-65
2022/05/29 04:40:41;;;;;;;7.25;2.22;;;;;;;;;;6173305;23;20100;-65
2022/05/29 04:43:08;;;;;;;9.15;2.00;;;;;;;;;;6182356;23;20100;-65
2022/05/29 04:45:37;;;;;;;6.82;2.10;;;;;;;;;;6176895;23;20043;-66
2022/05/29 04:48:03;;;;;;;8.60;2.10;;;;;;;;;;6172771;23;20025;-65
2022/05/29 04:50:29;;;;;;;7.70;1.90;;;;;;;;;;6182356;23;20157;-66
2022/05/29 04:52:56;;;;;;;4.63;1.75;;;;;;;;;;6173788;23;20068;-66
2022/05/29 04:55:22;;;;;;;3.95;1.88;;;;;;;;;;6182543;23;20113;-65
2022/05/29 04:57:49;;;;;;;6.55;1.70;;;;;;;;;;6174021;23;20028;-66
2022/05/29 05:00:16;;;;;;;5.97;1.75;;;;;;;;;;6170669;23;20522;-65
2022/05/29 05:02:42;;;;;;;11.07;1.70;;;;;;;;;;6173455;23;20056;-66
2022/05/29 05:05:09;;;;;;;8.30;1.83;;;;;;;;;;6181914;23;20023;-66
2022/05/29 05:07:35;;;;;;;6.53;1.73;;;;;;;;;;6182971;23;20021;-66
2022/05/29 05:10:06;;;;;;;6.72;1.98;;;;;;;;;;6175298;23;20099;-66
2022/05/29 05:12:33;;;;;;;3.55;1.58;;;;;;;;;;6176948;23;20151;-65
2022/05/29 05:14:59;;;;;;;5.32;1.88;;;;;;;;;;6142276;23;20057;-66
2022/05/29 05:17:25;;;;;;;6.80;2.08;;;;;;;;;;6181411;23;20104;-66
2022/05/29 05:19:52;;;;;;;3.65;1.58;;;;;;;;;;6174662;23;20017;-66
2022/05/29 05:22:18;;;;;;;4.20;1.85;;;;;;;;;;6181817;23;20108;-66
2022/05/29 05:24:44;;;;;;;5.57;1.85;;;;;;;;;;6179013;23;20035;-66
2022/05/29 05:27:11;;;;;;;10.82;2.15;;;;;;;;;;6171717;23;20477;-66
2022/05/29 05:29:41;;;;;;;5.10;1.65;;;;;;;;;;6175838;23;20025;-66
2022/05/29 05:32:07;;;;;;;4.85;1.63;;;;;;;;;;6173228;23;20021;-66
2022/05/29 05:34:34;;;;;;;6.70;1.92;;;;;;;;;;6182413;23;20107;-66
2022/05/29 05:37:00;;;;;;;5.93;1.90;;;;;;;;;;6148870;23;20017;-66
2022/05/29 05:39:26;;;;;;;6.25;1.90;;;;;;;;;;6181904;23;20105;-66
2022/05/29 05:41:53;;;;;;;7.30;1.80;;;;;;;;;;6164089;23;20033;-65
2022/05/29 05:44:20;;;;;;;5.70;1.40;;;;;;;;;;6179762;23;20112;-65
2022/05/29 05:46:49;;;;;;;5.10;1.73;;;;;;;;;;6180692;23;20095;-65
2022/05/29 05:49:15;;;;;;;;;;;;;;;;;;6177806;23;20080;-65
2022/05/29 05:51:41;;;;;;;5.68;1.73;;;;;;;;;;6182257;23;19995;-65
2022/05/29 05:54:08;;;;;;;7.68;1.70;;;;;;;;;;6168830;23;20100;-66
2022/05/29 05:56:34;;;;;;;5.22;1.60;;;;;;;;;;6176587;23;20104;-64
2022/05/29 05:59:00;;;;;;;9.15;2.08;;;;;;;;;;6174901;23;20044;-64
2022/05/29 06:01:26;;;;;;;4.45;1.63;;;;;;;;;;6181828;23;20043;-65
2022/05/29 06:03:56;;;;;;;5.05;1.55;;;;;;;;;;6174302;23;20025;-65
2022/05/29 06:06:23;;;;;;;3.83;1.50;;;;;;;;;;6181465;23;20021;-64
2022/05/29 06:08:49;;;;;;;5.57;1.85;;;;;;;;;;6176321;23;20104;-65
2022/05/29 06:11:16;;;;;;;5.65;2.38;;;;;;;;;;6170362;23;20119;-64
2022/05/29 06:13:42;;;;;;;7.30;1.80;;;;;;;;;;6181824;23;20025;-65
2022/05/29 06:16:09;;;;;;;4.10;1.30;;;;;;;;;;6172754;23;20049;-65
2022/05/29 06:18:36;;;;;;;6.65;1.60;;;;;;;;;;6181861;23;20108;-65
2022/05/29 06:21:04;;;;;;;5.43;1.70;;;;;;;;;;6172060;23;20095;-64
2022/05/29 06:23:31;;;;;;;3.90;1.42;;;;;;;;;;6172463;23;20023;-65
2022/05/29 06:26:02;;;;;;;3.00;1.40;;;;;;;;;;6173001;23;20031;-65
2022/05/29 06:28:29;;;;;;;2.15;1.17;;;;;;;;;;6180114;23;20096;-65
2022/05/29 06:30:55;;;;;;;5.22;1.30;;;;;;;;;;6181516;23;20021;-65
2022/05/29 06:33:21;;;;;;;2.58;1.45;;;;;;;;;;6173896;23;20024;-65
2022/05/29 06:35:48;;;;;;;4.57;1.45;;;;;;;;;;6175534;23;20100;-65
2022/05/29 06:38:14;;;;;;;3.67;1.20;;;;;;;;;;6166725;23;20410;-65
2022/05/29 06:40:42;;;;;;;3.20;1.25;;;;;;;;;;6181040;23;20104;-65
2022/05/29 06:43:09;;;;;;;4.25;1.33;;;;;;;;;;6173855;23;20076;-65
2022/05/29 06:45:36;;;;;;;3.75;1.02;;;;;;;;;;6181777;23;20405;-65
2022/05/29 06:48:02;;;;;;;4.82;1.10;;;;;;;;;;6175993;23;20353;-65
2022/05/29 06:50:29;;;;;;;5.18;1.30;;;;;;;;;;6178902;23;20437;-65
2022/05/29 06:52:55;;;;;;;2.97;1.13;;;;;;;;;;6181662;23;20352;-65
2022/05/29 06:55:21;;;;;;;4.55;1.65;;;;;;;;;;6173181;23;20025;-65
2022/05/29 06:57:48;;;;;;;3.30;1.30;;;;;;;;;;6181333;23;20056;-64
2022/05/29 07:08:38;;;;;;;6.85;1.67;;;;;;;;;;6181531;23;20465;-64
2022/05/29 07:11:10;;;;;;;4.10;1.50;;;;;;;;;;6149047;23;20087;-65
2022/05/29 07:13:36;;;;;;;5.65;2.05;;;;;;;;;;6177301;23;20405;-63
2022/05/29 07:16:03;;;;;;;4.05;1.42;;;;;;;;;;6170901;23;20104;-64
2022/05/29 07:18:30;;;;;;;6.35;1.60;;;;;;;;;;6177532;23;20021;-64
2022/05/29 07:20:58;;;;;;;3.53;1.58;;;;;;;;;;6181681;23;20060;-64
2022/05/29 07:23:24;;;;;;;4.25;1.30;;;;;;;;;;6171118;23;20052;-64
2022/05/29 07:25:51;;;;;;;5.25;1.80;;;;;;;;;;6181710;23;20486;-65
2022/05/29 07:28:17;;;;;;;5.40;1.48;;;;;;;;;;6166928;23;20064;-64
2022/05/29 07:30:46;;;;;;;5.55;1.70;;;;;;;;;;6175371;23;20057;-65
2022/05/29 07:33:13;;;;;;;3.10;1.30;;;;;;;;;;6174146;23;20107;-64
2022/05/29 07:35:40;;;;;;;2.20;1.08;;;;;;;;;;6182870;23;20096;-65
2022/05/29 07:38:06;;;;;;;4.60;1.30;;;;;;;;;;6179543;23;20147;-65
2022/05/29 07:40:32;;;;;;;5.40;1.13;;;;;;;;;;6179828;23;20027;-65
2022/05/29 07:45:46;;;;;;;2.28;1.10;;;;;;;;;;6169555;23;20044;-65
2022/05/29 07:48:13;;;;;;;4.45;1.10;;;;;;;;;;6183161;23;20084;-65
2022/05/29 07:50:40;;;;;;;4.10;1.13;;;;;;;;;;6174347;23;20025;-65
2022/05/29 07:53:06;;;;;;;3.47;1.15;;;;;;;;;;6182982;23;20419;-65
2022/05/29 07:55:32;;;;;;;2.58;1.27;;;;;;;;;;6173385;23;20100;-65
2022/05/29 07:57:59;;;;;;;6.30;1.38;;;;;;;;;;6174359;23;20108;-65
2022/05/29 08:00:26;;;;;;;4.28;1.20;;;;;;;;;;6182482;23;20306;-65
2022/05/29 08:02:52;;;;;;;6.72;1.45;;;;;;;;;;6177595;23;20538;-65
2022/05/29 08:05:20;;;;;;;2.78;0.93;;;;;;;;;;6183202;23;20057;-64
2022/05/29 08:07:47;;;;;;;6.60;1.45;;;;;;;;;;6175532;23;20056;-65
2022/05/29 08:10:14;;;;;;;6.07;1.58;;;;;;;;;;6177035;23;20100;-65
2022/05/29 08:12:41;;;;;;;5.18;1.58;;;;;;;;;;6168182;23;20036;-64
2022/05/29 08:15:09;;;;;;;5.47;1.40;;;;;;;;;;6182839;23;20497;-64
2022/05/29 08:17:36;;;;;;;6.55;1.50;;;;;;;;;;6175450;23;20579;-64
2022/05/29 08:20:03;;;;;;;4.13;1.10;;;;;;;;;;6183526;23;20056;-65
2022/05/29 08:22:29;;;;;;;6.03;1.45;;;;;;;;;;6182612;23;20056;-65
2022/05/29 08:30:37;;;;;;;7.85;1.63;;;;;;;;;;6174310;23;20061;-64
2022/05/29 08:33:05;;;;;;;5.38;1.40;;;;;;;;;;6183044;23;20092;-64
2022/05/29 08:35:32;;;;;;;5.73;1.50;;;;;;;;;;6176195;23;20021;-65
2022/05/29 08:37:59;;;;;;;6.18;1.98;;;;;;;;;;6176651;23;20056;-64
2022/05/29 08:40:26;;;;;;;6.65;1.33;;;;;;;;;;6167386;23;20056;-64
2022/05/29 08:42:53;;;;;;;3.35;1.27;;;;;;;;;;6182120;23;20099;-65
2022/05/29 08:45:19;;;;;;;4.07;1.20;;;;;;;;;;6173961;23;20043;-65
2022/05/29 08:47:46;;;;;;;4.00;1.30;;;;;;;;;;6182647;23;20060;-65
2022/05/29 08:50:21;;;;;;;4.80;1.48;;;;;;;;;;6182609;23;20067;-65
2022/05/29 08:53:14;;;;;;;6.22;1.42;;;;;;;;;;6168638;23;20282;-65
2022/05/29 08:55:45;;;;;;;4.45;1.40;;;;;;;;;;6147268;23;20060;-66
2022/05/29 08:58:11;;;;;;;4.10;1.20;;;;;;;;;;6174935;23;20101;-66
2022/05/29 09:00:43;;;;;;;7.07;1.30;;;;;;;;;;6182624;23;20100;-65
2022/05/29 09:03:28;;;;;;;3.03;1.23;;;;;;;;;;6174579;23;20021;-65
2022/05/29 09:06:04;;;;;;;4.55;1.30;;;;;;;;;;6176372;23;20056;-64
2022/05/29 09:08:52;;;;;;;5.28;1.20;;;;;;;;;;6168233;23;20033;-65
2022/05/29 09:11:27;;;;;;;6.63;1.52;;;;;;;;;;6181700;23;20401;-65
2022/05/29 09:13:54;;;;;;;4.13;1.30;;;;;;;;;;6173190;23;20108;-65
2022/05/29 09:16:23;;;;;;;4.10;1.20;;;;;;;;;;6181945;23;20079;-65
2022/05/29 09:19:02;;;;;;;4.53;1.35;;;;;;;;;;6169003;23;20306;-66
2022/05/29 09:21:52;;;;;;;9.18;1.50;;;;;;;;;;6177495;23;20052;-66
2022/05/29 09:24:25;;;;;;;8.88;1.42;;;;;;;;;;6173198;23;20100;-65
2022/05/29 09:26:52;;;;;;;2.60;0.80;;;;;;;;;;6182371;23;20482;-65
2022/05/29 09:29:18;;;;;;;5.03;1.13;;;;;;;;;;6181237;23;20052;-66
2022/05/29 09:31:44;;;;;;;4.32;1.05;;;;;;;;;;6173690;23;20358;-66
2022/05/29 09:34:11;;;;;;;7.25;1.10;;;;;;;;;;6172575;23;20031;-67
2022/05/29 09:36:37;;;;;;;4.68;0.95;;;;;;;;;;6173619;23;20501;-66
2022/05/29 09:39:05;;;;;;;5.97;1.40;;;;;;;;;;6182331;23;20093;-66
2022/05/29 09:41:41;;;;;;;7.40;1.20;;;;;;;;;;6174785;23;20027;-66
2022/05/29 09:44:13;;;;;;;6.50;1.70;;;;;;;;;;6181949;23;20096;-66
2022/05/29 09:46:40;;;;;;;6.95;1.35;;;;;;;;;;6168919;23;20569;-67
2022/05/29 09:52:01;;;;;;;6.13;1.25;;;;;;;;;;6177890;23;20017;-66
2022/05/29 09:54:33;;;;;;;6.70;1.10;;;;;;;;;;6180956;23;20088;-65
2022/05/29 09:57:13;;;;;;;3.65;1.05;;;;;;;;;;6181702;23;20060;-65
2022/05/29 09:59:42;;;;;;;6.22;1.40;;;;;;;;;;6168031;23;20502;-65
2022/05/29 10:02:29;;;;;;;5.28;1.27;;;;;;;;;;6175680;23;20099;-66
2022/05/29 10:04:59;;;;;;;7.20;1.10;;;;;;;;;;6174696;23;20052;-66
2022/05/29 10:07:34;;;;;;;3.08;1.00;;;;;;;;;;6181666;23;20446;-66
2022/05/29 10:10:08;;;;;;;9.52;1.55;;;;;;;;;;6175021;23;20020;-66
2022/05/29 10:12:40;;;;;;;6.50;1.25;;;;;;;;;;6180615;23;20135;-67
2022/05/29 10:15:12;;;;;;;6.07;1.50;;;;;;;;;;6165185;23;20042;-66
2022/05/29 10:17:40;;;;;;;8.13;1.20;;;;;;;;;;6181093;23;20049;-66
2022/05/29 10:20:27;;;;;;;5.63;1.30;;;;;;;;;;6173478;23;20032;-65
2022/05/29 10:22:55;;;;;;;6.47;1.20;;;;;;;;;;6166747;23;20021;-65
2022/05/29 10:25:30;;;;;;;7.80;1.47;;;;;;;;;;6174173;23;20025;-66
2022/05/29 10:27:59;;;;;;;5.85;1.35;;;;;;;;;;6172790;23;20108;-65
2022/05/29 10:30:31;;;;;;;11.80;1.45;;;;;;;;;;6179073;23;20108;-65
2022/05/29 10:33:00;;;;;;;11.55;1.42;;;;;;;;;;6176403;23;20067;-66
2022/05/29 10:35:26;;;;;;;;;;;;;;;;;;6181610;23;20366;-66
2022/05/29 10:37:53;;;;;;;9.00;1.42;;;;;;;;;;6174129;23;19982;-66
2022/05/29 10:40:25;;;;;;;8.80;1.67;;;;;;;;;;6175588;23;20405;-66
2022/05/29 10:42:53;;;;;;;7.50;1.40;;;;;;;;;;6168341;23;20021;-66
2022/05/29 10:45:21;;;;;;;6.50;1.30;;;;;;;;;;6180834;23;20023;-66
2022/05/29 10:48:08;;;;;;;5.82;1.30;;;;;;;;;;6173572;23;20025;-66
2022/05/29 10:50:47;;;;;;;3.97;1.20;;;;;;;;;;6182054;23;20112;-66
2022/05/29 10:53:20;;;;;;;3.85;1.00;;;;;;;;;;6174570;23;20103;-65
2022/05/29 10:55:51;;;;;;;3.80;1.02;;;;;;;;;;6179560;23;20068;-66
2022/05/29 10:58:36;;;;;;;3.13;1.10;;;;;;;;;;6181075;23;20103;-66
2022/05/29 11:04:20;;;;;;;7.00;1.90;;;;;;;;;;6179783;23;20020;-66
2022/05/29 11:07:01;;;;;;;5.22;1.13;;;;;;;;;;6173482;23;20382;-66
2022/05/29 11:09:28;;;;;;;6.07;1.17;;;;;;;;;;6180488;23;20028;-66
2022/05/29 11:12:00;;;;;;;3.38;1.00;;;;;;;;;;6173796;23;20111;-66
2022/05/29 11:14:45;;;;;;;4.30;1.25;;;;;;;;;;6180854;23;20036;-66
2022/05/29 11:17:21;;;;;;;4.32;1.10;;;;;;;;;;6172447;23;20017;-66
2022/05/29 11:20:06;;;;;;;7.10;1.40;;;;;;;;;;6142479;23;20490;-66
2022/05/29 11:22:51;;;;;;;7.43;1.25;;;;;;;;;;6143533;23;20113;-67
2022/05/29 11:25:17;;;;;;;4.18;1.00;;;;;;;;;;6151388;23;20108;-66
2022/05/29 11:28:05;;;;;;;6.85;1.60;;;;;;;;;;6142926;23;20100;-66
2022/05/29 11:30:51;;;;;;;5.80;1.63;;;;;;;;;;6151101;23;20022;-66
2022/05/29 11:33:36;;;;;;;4.60;0.95;;;;;;;;;;6136301;23;20104;-66
2022/05/29 11:36:21;;;;;;;8.50;1.55;;;;;;;;;;6150057;23;20030;-67
2022/05/29 11:38:50;;;;;;;4.90;1.10;;;;;;;;;;6143479;23;20068;-66
2022/05/29 11:41:20;;;;;;;5.03;1.23;;;;;;;;;;6151191;23;20021;-67
2022/05/29 11:44:07;;;;;;;6.32;1.38;;;;;;;;;;6143448;23;20467;-66
2022/05/29 11:52:31;;;;;;;4.40;1.00;;;;;;;;;;6151099;23;20096;-65
2022/05/29 11:55:07;;;;;;;6.50;1.45;;;;;;;;;;6144025;23;20715;-66
2022/05/29 11:57:44;;;;;;;6.43;1.42;;;;;;;;;;6152269;23;20049;-67
2022/05/29 12:00:21;;;;;;;4.30;0.97;;;;;;;;;;6113348;23;20052;-65
2022/05/29 12:02:56;;;;;;;7.97;1.00;;;;;;;;;;6145546;23;20104;-67
2022/05/29 12:05:32;;;;;;;2.95;0.95;;;;;;;;;;6150776;23;20108;-66
2022/05/29 12:08:08;;;;;;;3.78;0.82;;;;;;;;;;6150923;23;20104;-67
2022/05/29 12:10:46;;;;;;;5.10;1.05;;;;;;;;;;6150912;23;20030;-66
2022/05/29 12:13:14;;;;;;;4.05;0.85;;;;;;;;;;6142551;23;20056;-67
2022/05/29 12:15:41;;;;;;;3.83;0.90;;;;;;;;;;6144854;23;20022;-67
2022/05/29 12:18:10;;;;;;;8.00;1.30;;;;;;;;;;6153700;23;20346;-66
2022/05/29 12:20:41;;;;;;;5.63;1.13;;;;;;;;;;6181950;23;20466;-66
2022/05/29 12:23:17;;;;;;;6.20;0.90;;;;;;;;;;6175037;23;20104;-66
2022/05/29 12:25:48;;;;;;;4.20;0.90;;;;;;;;;;6182786;23;20102;-66
2022/05/29 12:28:33;;;;;;;5.25;1.10;;;;;;;;;;6164839;23;20103;-66
2022/05/29 12:31:00;;;;;;;5.25;1.25;;;;;;;;;;6181068;23;20075;-66
2022/05/29 12:33:27;;;;;;;5.72;1.20;;;;;;;;;;6173676;23;20047;-66
2022/05/29 12:36:04;;;;;;;4.65;0.90;;;;;;;;;;6181882;23;20120;-66
2022/05/29 12:38:36;;;;;;;5.18;1.02;;;;;;;;;;6181990;23;20057;-67
2022/05/29 12:41:07;;;;;;;3.72;1.15;;;;;;;;;;6169600;23;20108;-66
2022/05/29 12:43:55;;;;;;;6.00;1.80;;;;;;;;;;6176523;23;20120;-67
2022/05/29 12:47:01;;;;;;;2.72;0.63;;;;;;;;;;6174921;23;20108;-66
2022/05/29 12:49:42;;;;;;;6.03;1.15;;;;;;;;;;6090635;23;20475;-67
2022/05/29 12:52:08;;;;;;;1.80;0.70;;;;;;;;;;6083506;23;20113;-66
2022/05/29 12:54:35;;;;;;;2.83;0.85;;;;;;;;;;6139676;23;20027;-67
2022/05/29 12:57:15;;;;;;;3.88;1.00;;;;;;;;;;6170515;23;20068;-66
2022/05/29 13:00:02;;;;;;;3.03;0.65;;;;;;;;;;6182531;23;20482;-66
2022/05/29 13:02:51;;;;;;;3.83;0.80;;;;;;;;;;6174381;23;20478;-67
2022/05/29 13:05:35;;;;;;;5.07;0.80;;;;;;;;;;6139202;23;20017;-67
2022/05/29 13:08:13;;;;;;;4.30;0.65;;;;;;;;;;6169160;23;20108;-66
2022/05/29 13:10:41;;;;;;;6.47;1.08;;;;;;;;;;6176289;23;20116;-65
2022/05/29 13:13:20;;;;;;;5.43;0.90;;;;;;;;;;6174262;23;20100;-65
2022/05/29 13:15:47;;;;;;;3.50;0.80;;;;;;;;;;6182759;23;20084;-66
2022/05/29 13:21:15;;;;;;;3.28;0.73;;;;;;;;;;6182965;23;20100;-65
2022/05/29 13:23:46;;;;;;;3.38;0.70;;;;;;;;;;6169203;23;20103;-66
2022/05/29 13:26:18;;;;;;;6.55;0.85;;;;;;;;;;6181616;23;20025;-65
2022/05/29 13:28:53;;;;;;;5.82;0.80;;;;;;;;;;6176768;23;20056;-66
2022/05/29 13:31:19;;;;;;;2.42;0.75;;;;;;;;;;6180865;23;20104;-65
2022/05/29 13:33:58;;;;;;;6.88;0.95;;;;;;;;;;6182309;23;20403;-66
2022/05/29 13:36:37;;;;;;;2.08;0.70;;;;;;;;;;6164721;23;20280;-65
2022/05/29 13:39:06;;;;;;;3.00;0.88;;;;;;;;;;6181048;23;20103;-66
2022/05/29 13:41:49;;;;;;;4.45;1.00;;;;;;;;;;6174416;23;20055;-67
2022/05/29 13:44:28;;;;;;;5.55;0.88;;;;;;;;;;6181698;23;20053;-67
2022/05/29 13:47:13;;;;;;;3.42;0.85;;;;;;;;;;6175046;23;20056;-65
2022/05/29 13:49:43;;;;;;;4.38;0.95;;;;;;;;;;6176420;23;20485;-67
2022/05/29 13:52:16;;;;;;;6.32;0.95;;;;;;;;;;6167176;23;20063;-66
2022/05/29 13:54:44;;;;;;;4.47;0.90;;;;;;;;;;6182355;23;20437;-66
2022/05/29 13:57:11;;;;;;;;;;;;;;;;;;6173989;23;20017;-66
2022/05/29 14:05:41;;;;;;;2.08;0.75;;;;;;;;;;6175588;23;20406;-65
2022/05/29 14:08:19;;;;;;;3.70;0.68;;;;;;;;;;6173994;23;20116;-66
2022/05/29 14:10:58;;;;;;;3.22;0.90;;;;;;;;;;6182597;23;20508;-67
2022/05/29 14:13:28;;;;;;;5.68;0.85;;;;;;;;;;6177607;23;20052;-66
2022/05/29 14:15:57;;;;;;;7.32;1.00;;;;;;;;;;6181492;23;20161;-67
2022/05/29 14:18:29;;;;;;;3.28;0.80;;;;;;;;;;6171221;23;20095;-66
2022/05/29 14:21:01;;;;;;;2.97;0.95;;;;;;;;;;6174246;23;20100;-66
2022/05/29 14:23:35;;;;;;;2.63;0.95;;;;;;;;;;6182200;23;20048;-66
2022/05/29 14:26:04;;;;;;;4.40;1.08;;;;;;;;;;6175545;23;20028;-66
2022/05/29 14:28:49;;;;;;;3.75;0.90;;;;;;;;;;6181105;23;20338;-66
2022/05/29 14:31:31;;;;;;;3.85;1.00;;;;;;;;;;6167514;23;20381;-65
2022/05/29 14:33:57;;;;;;;3.47;0.75;;;;;;;;;;6177202;23;20028;-65
2022/05/29 14:36:58;;;;;;;1.92;0.75;;;;;;;;;;6173304;23;20028;-66
2022/05/29 14:39:39;;;;;;;5.10;0.95;;;;;;;;;;6181570;23;20021;-67
2022/05/29 14:42:17;;;;;;;5.57;1.02;;;;;;;;;;6173578;23;20348;-66
2022/05/29 14:44:43;;;;;;;;;;;;;;;;;;6176826;23;20387;-66
2022/05/29 14:47:12;;;;;;;8.02;1.25;;;;;;;;;;6168661;23;20320;-66
2022/05/29 14:49:39;;;;;;;2.00;0.60;;;;;;;;;;6155020;23;20029;-66
2022/05/29 14:52:08;;;;;;;2.85;0.90;;;;;;;;;;6181927;23;20060;-66
2022/05/29 14:54:39;;;;;;;5.45;0.98;;;;;;;;;;6174563;23;20096;-67
2022/05/29 14:57:16;;;;;;;3.95;0.80;;;;;;;;;;6181899;23;20071;-66
2022/05/29 14:59:42;;;;;;;8.98;1.00;;;;;;;;;;6164661;23;20116;-66
2022/05/29 15:02:18;;;;;;;6.63;1.30;;;;;;;;;;6180186;23;20415;-67
2022/05/29 15:04:45;;;;;;;5.85;0.90;;;;;;;;;;6174003;23;20047;-66
2022/05/29 15:12:44;;;;;;;6.43;1.02;;;;;;;;;;6176429;23;20083;-65
2022/05/29 15:15:23;;;;;;;4.25;0.98;;;;;;;;;;6167535;23;20488;-66
2022/05/29 15:17:50;;;;;;;4.80;1.30;;;;;;;;;;6182007;23;20108;-67
2022/05/29 15:26:12;;;;;;;4.25;0.95;;;;;;;;;;6154503;23;20059;-67
2022/05/29 15:28:42;;;;;;;3.92;1.20;;;;;;;;;;6174578;23;20059;-66
2022/05/29 15:31:13;;;;;;;7.05;1.05;;;;;;;;;;6181613;23;20101;-66
2022/05/29 15:33:42;;;;;;;3.78;0.82;;;;;;;;;;6173287;23;20017;-66
2022/05/29 15:36:16;;;;;;;4.70;1.27;;;;;;;;;;6180996;23;20097;-66
2022/05/29 15:38:50;;;;;;;5.00;1.63;;;;;;;;;;6174027;23;20458;-66
2022/05/29 15:41:39;;;;;;;6.68;1.13;;;;;;;;;;6175445;23;20412;-66
2022/05/29 15:44:38;;;;;;;3.70;1.00;;;;;;;;;;6170930;23;20100;-66
2022/05/29 15:47:12;;;;;;;3.55;0.82;;;;;;;;;;6135163;23;20017;-66
2022/05/29 15:49:58;;;;;;;3.42;1.38;;;;;;;;;;6174616;23;20470;-67
2022/05/29 15:52:41;;;;;;;2.80;0.80;;;;;;;;;;6181285;23;20071;-66
2022/05/29 15:55:26;;;;;;;8.68;1.00;;;;;;;;;;6169107;23;20116;-67
2022/05/29 15:57:55;;;;;;;5.47;1.00;;;;;;;;;;6180746;23;20517;-66
2022/05/29 16:00:23;;;;;;;5.00;1.20;;;;;;;;;;6176261;23;20116;-67
2022/05/29 16:02:52;;;;;;;6.82;1.00;;;;;;;;;;6183637;23;20056;-66
2022/05/29 16:05:25;;;;;;;3.53;1.00;;;;;;;;;;6175733;23;20021;-66